Time;durP1;ratioP1;P1;durP2;ratioP2;P2;SDS_P1;SDS_P2;PMS_P1;PMS_P2;Temp;Humidity;BMP_temperature;BMP_pressure;BME280_temperature;BME280_humidity;BME280_pressure;Samples;Min_cycle;Max_cycle;Signal;HPM_P1;HPM_P2
2022/04/03 00:00:43;;;;;;;25.37;21.67;;;;;;;;;;5051874;28;20095;-70
2022/04/03 00:03:09;;;;;;;24.33;20.58;;;;;;;;;;5050829;28;20076;-70
2022/04/03 00:05:41;;;;;;;24.25;20.70;;;;;;;;;;5051821;28;20044;-70
2022/04/03 00:08:08;;;;;;;21.17;18.55;;;;;;;;;;5050592;28;20045;-70
2022/04/03 00:10:35;;;;;;;20.58;16.65;;;;;;;;;;5051682;28;20049;-70
2022/04/03 00:13:03;;;;;;;21.83;17.50;;;;;;;;;;5043655;28;20558;-70
2022/04/03 00:15:29;;;;;;;17.52;15.73;;;;;;;;;;5052000;28;20321;-70
2022/04/03 00:17:56;;;;;;;22.30;17.33;;;;;;;;;;5051860;28;20095;-70
2022/04/03 00:20:22;;;;;;;27.95;22.67;;;;;;;;;;5051887;28;20473;-70
2022/04/03 00:22:49;;;;;;;20.98;17.13;;;;;;;;;;5051457;28;20084;-70
2022/04/03 00:25:18;;;;;;;18.90;15.87;;;;;;;;;;5050481;28;20469;-70
2022/04/03 00:27:45;;;;;;;18.17;14.43;;;;;;;;;;5051515;28;20274;-70
2022/04/03 00:30:11;;;;;;;15.87;14.27;;;;;;;;;;5051764;28;20076;-71
2022/04/03 00:32:38;;;;;;;15.15;13.60;;;;;;;;;;5051302;28;20497;-70
2022/04/03 00:35:05;;;;;;;17.75;15.07;;;;;;;;;;5051454;28;20467;-70
2022/04/03 00:37:31;;;;;;;20.70;15.98;;;;;;;;;;5051203;28;20167;-70
2022/04/03 00:39:58;;;;;;;17.08;15.05;;;;;;;;;;5051325;28;20072;-70
2022/04/03 00:42:25;;;;;;;16.05;14.35;;;;;;;;;;5051360;28;20489;-70
2022/04/03 00:44:51;;;;;;;17.52;13.52;;;;;;;;;;5051489;28;20081;-70
2022/04/03 00:47:19;;;;;;;17.40;14.65;;;;;;;;;;5051275;28;20081;-70
2022/04/03 00:49:46;;;;;;;17.33;14.68;;;;;;;;;;5051313;28;20497;-70
2022/04/03 00:52:12;;;;;;;17.75;14.63;;;;;;;;;;5051146;28;20068;-70
2022/04/03 00:54:39;;;;;;;18.20;14.07;;;;;;;;;;5051241;28;20075;-70
2022/04/03 00:57:06;;;;;;;18.83;15.52;;;;;;;;;;5051371;28;20081;-70
2022/04/03 00:59:35;;;;;;;19.52;15.25;;;;;;;;;;5051262;28;20485;-70
2022/04/03 01:02:03;;;;;;;18.35;15.55;;;;;;;;;;5051434;28;20103;-70
2022/04/03 01:04:30;;;;;;;18.70;14.35;;;;;;;;;;5051015;28;20523;-70
2022/04/03 01:06:57;;;;;;;15.75;13.85;;;;;;;;;;5051134;28;20095;-70
2022/04/03 01:09:23;;;;;;;16.50;14.48;;;;;;;;;;5051038;28;20103;-70
2022/04/03 01:11:50;;;;;;;16.67;13.98;;;;;;;;;;5046029;28;20079;-70
2022/04/03 01:14:32;;;;;;;18.85;13.98;;;;;;;;;;5047733;28;20489;-70
2022/04/03 01:16:59;;;;;;;19.33;14.55;;;;;;;;;;5051425;28;20091;-70
2022/04/03 01:19:26;;;;;;;20.30;16.75;;;;;;;;;;5043285;28;20080;-70
2022/04/03 01:21:52;;;;;;;18.95;16.15;;;;;;;;;;5041420;28;20140;-70
2022/04/03 01:24:19;;;;;;;19.63;16.15;;;;;;;;;;5032366;28;20049;-70
2022/04/03 01:26:46;;;;;;;21.35;16.50;;;;;;;;;;5049554;28;20156;-70
2022/04/03 01:29:12;;;;;;;19.75;16.42;;;;;;;;;;5054515;28;20083;-70
2022/04/03 01:31:39;;;;;;;19.10;16.17;;;;;;;;;;5054640;28;20049;-70
2022/04/03 01:34:05;;;;;;;17.98;14.48;;;;;;;;;;5054826;28;20065;-70
2022/04/03 01:36:32;;;;;;;16.42;13.95;;;;;;;;;;5054137;28;20147;-70
2022/04/03 01:38:58;;;;;;;15.07;13.18;;;;;;;;;;5054754;28;20087;-68
2022/04/03 01:41:24;;;;;;;15.25;13.65;;;;;;;;;;5054425;28;20080;-70
2022/04/03 01:43:51;;;;;;;16.48;14.20;;;;;;;;;;5054550;28;20041;-70
2022/04/03 01:46:17;;;;;;;16.50;13.90;;;;;;;;;;5054579;28;20460;-70
2022/04/03 01:48:44;;;;;;;15.15;12.43;;;;;;;;;;5054627;28;20115;-70
2022/04/03 01:51:10;;;;;;;12.57;10.20;;;;;;;;;;5054225;28;20092;-70
2022/04/03 01:53:37;;;;;;;15.43;11.85;;;;;;;;;;5053982;28;20528;-70
2022/04/03 01:56:04;;;;;;;14.02;11.55;;;;;;;;;;5054510;28;20080;-70
2022/04/03 01:58:31;;;;;;;13.38;10.57;;;;;;;;;;5054021;28;20493;-70
2022/04/03 02:00:58;;;;;;;14.40;11.00;;;;;;;;;;5054054;28;20107;-70
2022/04/03 02:03:24;;;;;;;13.00;11.18;;;;;;;;;;5053831;28;20049;-70
2022/04/03 02:05:51;;;;;;;13.27;11.15;;;;;;;;;;5054332;28;20091;-70
2022/04/03 02:08:17;;;;;;;14.55;11.00;;;;;;;;;;5054114;28;20080;-70
2022/04/03 02:10:44;;;;;;;13.00;11.52;;;;;;;;;;5052570;28;20493;-70
2022/04/03 02:13:11;;;;;;;13.07;10.65;;;;;;;;;;5050153;28;20136;-70
2022/04/03 02:15:38;;;;;;;14.48;11.48;;;;;;;;;;5052758;28;20106;-70
2022/04/03 02:18:04;;;;;;;13.52;11.27;;;;;;;;;;5053762;28;20076;-70
2022/04/03 02:20:34;;;;;;;12.40;10.57;;;;;;;;;;5053804;28;20085;-70
2022/04/03 02:23:00;;;;;;;14.93;11.45;;;;;;;;;;5052693;28;20053;-70
2022/04/03 02:25:28;;;;;;;21.85;15.85;;;;;;;;;;5053882;28;20462;-70
2022/04/03 02:27:54;;;;;;;20.38;15.50;;;;;;;;;;5052339;28;20562;-70
2022/04/03 02:30:21;;;;;;;19.38;16.35;;;;;;;;;;5053811;28;20080;-70
2022/04/03 02:32:47;;;;;;;21.67;17.05;;;;;;;;;;5053384;28;20106;-70
2022/04/03 02:35:14;;;;;;;19.17;15.52;;;;;;;;;;5052467;28;20413;-70
2022/04/03 02:37:41;;;;;;;18.80;15.10;;;;;;;;;;5052009;28;20072;-70
2022/04/03 02:40:09;;;;;;;18.60;15.38;;;;;;;;;;5053636;28;20130;-70
2022/04/03 02:42:36;;;;;;;15.50;13.00;;;;;;;;;;5052306;28;20080;-70
2022/04/03 02:45:03;;;;;;;16.50;13.38;;;;;;;;;;5053159;28;20417;-70
2022/04/03 02:47:30;;;;;;;17.02;15.18;;;;;;;;;;5051975;28;20568;-70
2022/04/03 02:49:56;;;;;;;17.25;15.38;;;;;;;;;;5053407;28;20069;-71
2022/04/03 02:52:23;;;;;;;19.05;14.25;;;;;;;;;;5053049;28;20080;-71
2022/04/03 02:54:49;;;;;;;17.30;13.43;;;;;;;;;;5053304;28;20093;-71
2022/04/03 02:57:16;;;;;;;18.45;14.45;;;;;;;;;;5052947;28;20091;-71
2022/04/03 02:59:45;;;;;;;18.50;13.95;;;;;;;;;;5052864;28;20076;-71
2022/04/03 03:02:12;;;;;;;16.52;14.15;;;;;;;;;;5052831;28;20531;-71
2022/04/03 03:04:38;;;;;;;18.13;14.05;;;;;;;;;;5053083;28;20136;-71
2022/04/03 03:07:05;;;;;;;15.63;13.73;;;;;;;;;;5053153;28;20443;-70
2022/04/03 03:09:32;;;;;;;15.52;13.50;;;;;;;;;;5051794;28;20081;-70
2022/04/03 03:11:59;;;;;;;15.05;12.27;;;;;;;;;;5050953;28;20076;-70
2022/04/03 03:14:27;;;;;;;16.73;11.80;;;;;;;;;;5052643;28;20081;-70
2022/04/03 03:16:53;;;;;;;19.17;13.65;;;;;;;;;;5052613;28;20073;-70
2022/04/03 03:19:20;;;;;;;22.42;14.25;;;;;;;;;;5052854;28;20056;-70
2022/04/03 03:21:46;;;;;;;26.48;15.43;;;;;;;;;;5052386;28;20561;-70
2022/04/03 03:24:13;;;;;;;28.20;18.10;;;;;;;;;;5052459;28;20068;-70
2022/04/03 03:26:40;;;;;;;25.60;17.08;;;;;;;;;;5052693;28;20463;-70
2022/04/03 03:29:06;;;;;;;22.50;14.75;;;;;;;;;;5052664;28;20052;-70
2022/04/03 03:31:33;;;;;;;20.05;14.95;;;;;;;;;;5052663;28;20045;-70
2022/04/03 03:33:59;;;;;;;20.83;16.60;;;;;;;;;;5052406;28;20063;-71
2022/04/03 03:36:26;;;;;;;20.52;15.38;;;;;;;;;;5052177;28;20092;-71
2022/04/03 03:38:52;;;;;;;16.15;12.65;;;;;;;;;;5052723;28;20164;-71
2022/04/03 03:41:18;;;;;;;17.98;13.25;;;;;;;;;;5052323;28;20049;-71
2022/04/03 03:43:45;;;;;;;26.98;17.67;;;;;;;;;;5051875;28;20128;-70
2022/04/03 03:46:11;;;;;;;30.40;18.52;;;;;;;;;;5052080;28;20045;-71
2022/04/03 03:48:38;;;;;;;27.40;16.55;;;;;;;;;;5052121;28;20048;-71
2022/04/03 03:51:04;;;;;;;20.55;13.98;;;;;;;;;;5051988;28;20128;-71
2022/04/03 03:53:31;;;;;;;31.90;16.60;;;;;;;;;;5050892;28;20049;-71
2022/04/03 03:55:57;;;;;;;28.55;18.23;;;;;;;;;;5052177;28;20077;-71
2022/04/03 03:58:24;;;;;;;32.78;18.70;;;;;;;;;;5050869;28;20083;-71
2022/04/03 04:00:50;;;;;;;27.48;15.80;;;;;;;;;;5050595;28;20085;-71
2022/04/03 04:03:17;;;;;;;23.75;14.75;;;;;;;;;;5050756;28;20087;-71
2022/04/03 04:05:43;;;;;;;18.73;11.85;;;;;;;;;;5051865;28;20132;-71
2022/04/03 04:08:10;;;;;;;21.23;13.50;;;;;;;;;;5051955;28;20452;-71
2022/04/03 04:10:36;;;;;;;20.08;12.32;;;;;;;;;;5051963;28;20088;-71
2022/04/03 04:13:03;;;;;;;15.95;11.23;;;;;;;;;;5050901;28;20076;-71
2022/04/03 04:15:30;;;;;;;21.73;14.52;;;;;;;;;;5051606;28;20095;-70
2022/04/03 04:17:56;;;;;;;20.20;12.35;;;;;;;;;;5051994;28;20460;-71
2022/04/03 04:20:23;;;;;;;15.95;11.50;;;;;;;;;;5051850;28;20045;-71
2022/04/03 04:22:50;;;;;;;12.20;9.77;;;;;;;;;;5051765;28;20096;-71
2022/04/03 04:25:17;;;;;;;16.25;10.38;;;;;;;;;;5051693;28;20080;-71
2022/04/03 04:27:44;;;;;;;15.25;11.60;;;;;;;;;;5051726;28;20106;-71
2022/04/03 04:30:11;;;;;;;13.05;10.32;;;;;;;;;;5051505;28;20084;-71
2022/04/03 04:32:37;;;;;;;14.77;11.15;;;;;;;;;;5051516;28;20045;-70
2022/04/03 04:35:04;;;;;;;13.52;10.13;;;;;;;;;;5051352;28;20092;-71
2022/04/03 04:37:31;;;;;;;12.80;9.80;;;;;;;;;;5051160;28;20053;-71
2022/04/03 04:39:57;;;;;;;12.30;10.05;;;;;;;;;;5050433;28;20092;-71
2022/04/03 04:42:24;;;;;;;12.82;9.88;;;;;;;;;;5051395;28;20438;-70
2022/04/03 04:44:50;;;;;;;12.18;8.93;;;;;;;;;;5051305;28;20513;-71
2022/04/03 04:47:17;;;;;;;10.75;8.93;;;;;;;;;;5051624;28;20076;-71
2022/04/03 04:49:43;;;;;;;11.95;9.02;;;;;;;;;;5051453;28;20076;-70
2022/04/03 04:52:09;;;;;;;12.35;8.73;;;;;;;;;;5051495;28;20095;-71
2022/04/03 04:54:36;;;;;;;12.25;8.95;;;;;;;;;;5051162;28;20080;-71
2022/04/03 04:57:02;;;;;;;10.50;8.60;;;;;;;;;;5054498;28;20085;-71
2022/04/03 04:59:31;;;;;;;11.32;9.07;;;;;;;;;;5055317;28;20045;-71
2022/04/03 05:01:59;;;;;;;11.15;8.57;;;;;;;;;;5055468;28;20152;-70
2022/04/03 05:04:26;;;;;;;11.95;9.02;;;;;;;;;;5054100;28;20053;-70
2022/04/03 05:06:53;;;;;;;9.80;7.68;;;;;;;;;;5055355;28;20048;-70
2022/04/03 05:09:20;;;;;;;9.32;7.75;;;;;;;;;;5055112;28;20053;-71
2022/04/03 05:11:47;;;;;;;10.75;7.80;;;;;;;;;;5053036;28;20045;-71
2022/04/03 05:14:13;;;;;;;9.95;8.25;;;;;;;;;;5055022;28;20084;-71
2022/04/03 05:16:40;;;;;;;8.52;7.63;;;;;;;;;;5055171;28;20052;-71
2022/04/03 05:19:07;;;;;;;10.82;8.45;;;;;;;;;;5054925;28;20053;-71
2022/04/03 05:21:34;;;;;;;9.73;7.40;;;;;;;;;;5053851;28;20107;-71
2022/04/03 05:24:00;;;;;;;9.52;6.97;;;;;;;;;;5054966;28;20057;-71
2022/04/03 05:26:27;;;;;;;10.38;7.53;;;;;;;;;;5054790;28;20531;-71
2022/04/03 05:28:53;;;;;;;9.40;7.80;;;;;;;;;;5054897;28;20080;-71
2022/04/03 05:31:19;;;;;;;10.43;7.55;;;;;;;;;;5054955;28;20045;-71
2022/04/03 05:33:46;;;;;;;7.95;6.80;;;;;;;;;;5053691;28;20123;-71
2022/04/03 05:36:12;;;;;;;13.32;7.97;;;;;;;;;;5054489;28;20053;-71
2022/04/03 05:38:39;;;;;;;12.02;8.38;;;;;;;;;;5054492;28;20049;-70
2022/04/03 05:41:05;;;;;;;11.32;7.40;;;;;;;;;;5054533;28;20091;-71
2022/04/03 05:43:31;;;;;;;9.63;7.10;;;;;;;;;;5054788;28;20077;-71
2022/04/03 05:45:58;;;;;;;12.73;8.02;;;;;;;;;;5054215;28;20128;-71
2022/04/03 05:48:24;;;;;;;16.65;10.30;;;;;;;;;;5054648;28;20430;-71
2022/04/03 05:50:51;;;;;;;26.45;12.60;;;;;;;;;;5054542;28;20077;-71
2022/04/03 05:53:17;;;;;;;20.58;11.00;;;;;;;;;;5054384;28;20048;-71
2022/04/03 05:55:47;;;;;;;54.10;20.08;;;;;;;;;;5054255;28;20598;-71
2022/04/03 05:58:13;;;;;;;49.47;18.73;;;;;;;;;;5052818;28;20563;-71
2022/04/03 06:00:40;;;;;;;53.22;21.20;;;;;;;;;;5054195;28;20492;-71
2022/04/03 06:03:07;;;;;;;82.60;31.88;;;;;;;;;;5054213;28;20486;-71
2022/04/03 06:05:34;;;;;;;65.18;26.02;;;;;;;;;;5053953;28;20128;-71
2022/04/03 06:08:04;;;;;;;65.72;27.70;;;;;;;;;;5053724;28;20056;-71
2022/04/03 06:10:31;;;;;;;29.85;16.83;;;;;;;;;;5052984;28;20041;-71
2022/04/03 06:12:57;;;;;;;27.52;16.42;;;;;;;;;;5053403;28;20080;-71
2022/04/03 06:15:25;;;;;;;21.35;12.93;;;;;;;;;;5053692;28;20095;-71
2022/04/03 06:17:51;;;;;;;15.60;10.50;;;;;;;;;;5054966;28;20564;-71
2022/04/03 06:20:21;;;;;;;23.60;16.35;;;;;;;;;;5053885;28;20040;-71
2022/04/03 06:22:47;;;;;;;37.80;25.65;;;;;;;;;;5053992;28;20084;-71
2022/04/03 06:25:14;;;;;;;20.15;14.52;;;;;;;;;;5053830;28;20091;-71
2022/04/03 06:27:41;;;;;;;19.30;13.65;;;;;;;;;;5047779;28;20132;-71
2022/04/03 06:30:08;;;;;;;16.45;12.73;;;;;;;;;;5044935;28;20087;-71
2022/04/03 06:32:35;;;;;;;15.45;11.57;;;;;;;;;;5053858;28;20069;-71
2022/04/03 06:35:01;;;;;;;12.27;9.10;;;;;;;;;;5053791;28;20079;-71
2022/04/03 06:37:28;;;;;;;10.10;8.68;;;;;;;;;;5053207;28;20099;-70
2022/04/03 06:39:54;;;;;;;10.70;8.48;;;;;;;;;;5053666;28;20053;-71
2022/04/03 06:42:21;;;;;;;11.35;8.35;;;;;;;;;;5039060;28;20076;-71
2022/04/03 06:44:47;;;;;;;12.00;8.35;;;;;;;;;;5052033;28;20072;-71
2022/04/03 06:47:14;;;;;;;12.20;7.90;;;;;;;;;;5052213;28;20076;-71
2022/04/03 06:49:41;;;;;;;11.95;8.63;;;;;;;;;;5053242;28;20485;-71
2022/04/03 06:52:08;;;;;;;24.88;14.02;;;;;;;;;;5052965;28;20076;-71
2022/04/03 06:54:35;;;;;;;19.85;11.82;;;;;;;;;;5052188;28;20461;-71
2022/04/03 06:57:02;;;;;;;19.00;10.95;;;;;;;;;;5053172;28;20103;-71
2022/04/03 06:59:29;;;;;;;18.05;11.82;;;;;;;;;;5051927;28;20052;-71
2022/04/03 07:01:56;;;;;;;12.70;10.23;;;;;;;;;;5053211;28;20091;-71
2022/04/03 07:04:22;;;;;;;28.42;12.88;;;;;;;;;;5052776;28;20059;-71
2022/04/03 07:06:49;;;;;;;16.88;10.63;;;;;;;;;;5053163;28;20099;-72
2022/04/03 07:09:15;;;;;;;17.95;10.18;;;;;;;;;;5053070;28;20095;-71
2022/04/03 07:11:41;;;;;;;15.35;10.07;;;;;;;;;;5048947;28;20080;-72
2022/04/03 07:14:08;;;;;;;9.82;7.93;;;;;;;;;;5047500;28;20080;-72
2022/04/03 07:16:34;;;;;;;11.23;9.25;;;;;;;;;;5042079;28;20509;-71
2022/04/03 07:19:01;;;;;;;13.20;9.07;;;;;;;;;;5033978;28;20072;-71
2022/04/03 07:21:27;;;;;;;11.45;9.18;;;;;;;;;;5032372;28;20069;-71
2022/04/03 07:23:54;;;;;;;11.02;8.95;;;;;;;;;;5032577;28;20041;-72
2022/04/03 07:26:20;;;;;;;12.98;10.10;;;;;;;;;;5046107;28;20059;-74
2022/04/03 07:28:47;;;;;;;11.02;9.10;;;;;;;;;;5034028;28;20065;-73
2022/04/03 07:31:13;;;;;;;12.38;9.27;;;;;;;;;;5031530;28;20099;-71
2022/04/03 07:33:39;;;;;;;13.85;10.60;;;;;;;;;;5040100;28;20055;-72
2022/04/03 07:36:06;;;;;;;12.23;8.75;;;;;;;;;;5051948;28;20049;-73
2022/04/03 07:38:33;;;;;;;9.82;8.82;;;;;;;;;;5031750;28;20053;-73
2022/04/03 07:41:03;;;;;;;12.63;8.75;;;;;;;;;;5029910;28;20460;-73
2022/04/03 07:43:29;;;;;;;9.55;8.60;;;;;;;;;;5030991;28;20521;-73
2022/04/03 07:45:57;;;;;;;10.43;8.65;;;;;;;;;;5031387;28;20068;-73
2022/04/03 07:48:23;;;;;;;9.98;8.98;;;;;;;;;;5031573;28;20100;-75
2022/04/03 07:50:51;;;;;;;10.07;8.60;;;;;;;;;;5031659;28;20045;-76
2022/04/03 07:53:18;;;;;;;10.07;9.00;;;;;;;;;;5031472;28;20045;-75
2022/04/03 07:55:45;;;;;;;11.63;9.65;;;;;;;;;;5031817;28;20091;-74
2022/04/03 07:58:11;;;;;;;10.52;9.50;;;;;;;;;;5038980;28;20053;-70
2022/04/03 08:00:38;;;;;;;9.57;8.68;;;;;;;;;;5046340;28;20110;-77
2022/04/03 08:03:04;;;;;;;10.60;9.50;;;;;;;;;;5052071;28;20076;-72
2022/04/03 08:05:31;;;;;;;13.07;10.43;;;;;;;;;;5052003;28;20081;-72
2022/04/03 08:07:58;;;;;;;9.45;8.65;;;;;;;;;;5051937;28;20132;-72
2022/04/03 08:10:24;;;;;;;11.17;9.90;;;;;;;;;;5050858;28;20087;-72
2022/04/03 08:12:51;;;;;;;9.45;8.55;;;;;;;;;;5041379;28;20425;-70
2022/04/03 08:15:18;;;;;;;8.25;7.45;;;;;;;;;;5052029;28;20049;-72
2022/04/03 08:17:45;;;;;;;8.02;7.30;;;;;;;;;;5051644;28;20075;-71
2022/04/03 08:20:13;;;;;;;8.43;7.63;;;;;;;;;;5051640;28;20115;-74
2022/04/03 08:22:39;;;;;;;7.10;6.47;;;;;;;;;;5051836;28;20092;-71
2022/04/03 08:25:06;;;;;;;7.13;6.35;;;;;;;;;;5050175;28;20095;-71
2022/04/03 08:28:00;;;;;;;7.63;6.65;;;;;;;;;;5051767;28;20114;-74
2022/04/03 08:30:28;;;;;;;6.85;6.35;;;;;;;;;;5042488;28;20045;-74
2022/04/03 08:32:55;;;;;;;6.13;5.63;;;;;;;;;;5038551;28;20053;-73
2022/04/03 08:35:24;;;;;;;6.65;6.03;;;;;;;;;;5050072;28;20072;-76
2022/04/03 08:37:50;;;;;;;7.07;6.47;;;;;;;;;;5040620;28;20089;-74
2022/04/03 08:40:18;;;;;;;6.70;6.10;;;;;;;;;;5028914;28;20064;-72
2022/04/03 08:42:45;;;;;;;7.07;6.32;;;;;;;;;;5028528;28;20498;-72
2022/04/03 08:45:11;;;;;;;6.43;5.63;;;;;;;;;;5028198;28;20071;-72
2022/04/03 08:47:43;;;;;;;6.63;5.82;;;;;;;;;;5031095;28;20050;-71
2022/04/03 08:50:10;;;;;;;6.72;5.75;;;;;;;;;;5031170;28;20438;-69
2022/04/03 08:52:36;;;;;;;;;;;;;;;;;;5035302;28;20080;-69
2022/04/03 08:55:04;;;;;;;5.60;5.00;;;;;;;;;;5051540;28;19959;-69
2022/04/03 08:57:31;;;;;;;5.18;4.68;;;;;;;;;;5051459;28;20344;-71
2022/04/03 08:59:57;;;;;;;5.25;4.60;;;;;;;;;;5051479;28;20110;-70
2022/04/03 09:02:24;;;;;;;4.67;4.27;;;;;;;;;;5051373;28;20382;-70
2022/04/03 09:04:50;;;;;;;5.65;4.30;;;;;;;;;;5051389;28;20053;-70
2022/04/03 09:07:18;;;;;;;4.07;3.67;;;;;;;;;;5051287;28;20045;-70
2022/04/03 09:09:44;;;;;;;;;;;;;;;;;;5051751;28;20045;-70
2022/04/03 09:12:15;;;;;;;4.63;3.63;;;;;;;;;;5043231;28;19961;-70
2022/04/03 09:14:49;;;;;;;3.55;3.25;;;;;;;;;;5050054;28;20045;-70
2022/04/03 09:17:31;;;;;;;3.58;3.08;;;;;;;;;;5051188;28;20075;-70
2022/04/03 09:20:03;;;;;;;4.47;3.13;;;;;;;;;;5051393;28;20072;-70
2022/04/03 09:22:29;;;;;;;5.15;4.55;;;;;;;;;;5051434;28;20083;-70
2022/04/03 09:24:55;;;;;;;4.40;4.00;;;;;;;;;;5051416;28;20095;-70
2022/04/03 09:27:22;;;;;;;4.37;3.57;;;;;;;;;;5051267;28;20095;-70
2022/04/03 09:30:00;;;;;;;5.72;5.20;;;;;;;;;;5051192;28;20045;-70
2022/04/03 09:32:27;;;;;;;5.88;5.30;;;;;;;;;;5049716;28;20072;-70
2022/04/03 09:34:57;;;;;;;5.57;4.28;;;;;;;;;;5050959;28;20053;-70
2022/04/03 09:37:30;;;;;;;3.60;3.30;;;;;;;;;;5050861;28;20091;-70
2022/04/03 09:39:57;;;;;;;3.35;3.05;;;;;;;;;;5050893;28;20049;-70
2022/04/03 09:42:23;;;;;;;3.10;2.90;;;;;;;;;;5052758;28;20088;-70
2022/04/03 09:44:50;;;;;;;4.65;3.00;;;;;;;;;;5054537;28;20049;-70
2022/04/03 09:47:26;;;;;;;3.65;3.30;;;;;;;;;;5054379;28;20501;-69
2022/04/03 09:49:52;;;;;;;4.45;3.50;;;;;;;;;;5054299;28;20041;-70
2022/04/03 09:52:38;;;;;;;3.30;3.10;;;;;;;;;;5053065;28;20374;-70
2022/04/03 09:55:13;;;;;;;3.70;3.40;;;;;;;;;;5054213;28;20519;-70
2022/04/03 09:57:42;;;;;;;4.45;3.47;;;;;;;;;;5054626;28;20467;-70
2022/04/03 10:00:30;;;;;;;3.70;3.40;;;;;;;;;;5054357;28;20052;-70
2022/04/03 10:02:57;;;;;;;5.13;4.03;;;;;;;;;;5054323;28;20106;-70
2022/04/03 10:05:24;;;;;;;4.68;3.97;;;;;;;;;;5053996;28;20568;-70
2022/04/03 10:07:51;;;;;;;4.63;3.97;;;;;;;;;;5053126;28;20081;-70
2022/04/03 10:10:17;;;;;;;4.55;3.55;;;;;;;;;;5053918;28;20124;-70
2022/04/03 10:12:44;;;;;;;4.05;3.75;;;;;;;;;;5053300;28;20076;-70
2022/04/03 10:15:10;;;;;;;4.25;3.90;;;;;;;;;;5054078;28;20446;-70
2022/04/03 10:17:37;;;;;;;4.78;4.25;;;;;;;;;;5054010;28;20095;-70
2022/04/03 10:20:05;;;;;;;4.50;4.10;;;;;;;;;;5053686;28;20481;-70
2022/04/03 10:22:35;;;;;;;4.45;4.07;;;;;;;;;;5052519;28;20106;-70
2022/04/03 10:25:06;;;;;;;4.78;4.47;;;;;;;;;;5052246;28;20077;-70
2022/04/03 10:27:35;;;;;;;4.50;4.13;;;;;;;;;;5053588;28;20476;-70
2022/04/03 10:30:02;;;;;;;4.95;4.65;;;;;;;;;;5053829;28;20087;-71
2022/04/03 10:32:29;;;;;;;;;;;;;;;;;;5054245;28;20472;-70
2022/04/03 10:34:56;;;;;;;5.07;4.13;;;;;;;;;;5053530;28;20415;-70
2022/04/03 10:37:27;;;;;;;4.38;3.97;;;;;;;;;;5053231;28;20525;-70
2022/04/03 10:40:00;;;;;;;5.40;4.90;;;;;;;;;;5053409;28;20500;-70
2022/04/03 10:42:26;;;;;;;2.75;2.08;;;;;;;;;;5053650;28;20465;-70
2022/04/03 10:45:19;;;;;;;3.35;2.92;;;;;;;;;;5053300;28;20911;-70
2022/04/03 10:47:46;;;;;;;2.35;2.03;;;;;;;;;;5044225;28;20132;-70
2022/04/03 10:50:12;;;;;;;1.88;1.77;;;;;;;;;;5053498;28;20123;-70
2022/04/03 10:52:42;;;;;;;2.10;2.00;;;;;;;;;;5053307;28;20084;-70
2022/04/03 10:55:11;;;;;;;1.80;1.70;;;;;;;;;;5053087;28;20080;-70
2022/04/03 10:57:42;;;;;;;2.22;2.03;;;;;;;;;;5053064;28;20095;-70
2022/04/03 11:00:12;;;;;;;1.90;1.80;;;;;;;;;;5052072;28;20080;-70
2022/04/03 11:02:38;;;;;;;2.58;2.25;;;;;;;;;;5053032;28;20049;-70
2022/04/03 11:05:29;;;;;;;2.10;2.00;;;;;;;;;;5052883;28;20531;-70
2022/04/03 11:08:02;;;;;;;2.28;2.10;;;;;;;;;;5052868;28;20084;-70
2022/04/03 11:10:48;;;;;;;2.90;2.60;;;;;;;;;;5052981;28;20041;-70
2022/04/03 11:13:15;;;;;;;2.85;2.58;;;;;;;;;;5051090;28;20053;-70
2022/04/03 11:16:00;;;;;;;2.95;2.10;;;;;;;;;;5053012;28;20061;-70
2022/04/03 11:18:32;;;;;;;2.03;1.92;;;;;;;;;;5052429;28;20132;-70
2022/04/03 11:21:14;;;;;;;2.67;2.40;;;;;;;;;;5048648;28;20132;-70
2022/04/03 11:23:49;;;;;;;2.28;2.08;;;;;;;;;;5051668;28;20085;-73
2022/04/03 11:26:15;;;;;;;2.55;2.35;;;;;;;;;;5045068;28;20048;-70
2022/04/03 11:28:43;;;;;;;2.75;2.50;;;;;;;;;;5043832;28;20045;-70
2022/04/03 11:31:10;;;;;;;3.08;2.88;;;;;;;;;;5049339;28;20120;-69
2022/04/03 11:33:37;;;;;;;3.60;3.30;;;;;;;;;;5034749;28;20493;-72
2022/04/03 11:36:12;;;;;;;2.42;2.20;;;;;;;;;;5030773;28;20303;-70
2022/04/03 11:38:39;;;;;;;1.58;1.48;;;;;;;;;;5029805;28;20103;-71
2022/04/03 11:41:06;;;;;;;1.60;1.50;;;;;;;;;;5030950;28;20107;-71
2022/04/03 11:43:33;;;;;;;1.50;1.40;;;;;;;;;;5030756;28;20100;-70
2022/04/03 11:46:01;;;;;;;2.10;1.80;;;;;;;;;;5029840;28;20052;-70
2022/04/03 11:48:29;;;;;;;1.90;1.80;;;;;;;;;;5042204;28;20128;-70
2022/04/03 11:51:03;;;;;;;2.58;2.38;;;;;;;;;;5049656;28;20079;-71
2022/04/03 11:53:29;;;;;;;2.60;2.40;;;;;;;;;;5051194;28;20084;-70
2022/04/03 11:55:56;;;;;;;2.20;2.00;;;;;;;;;;5041834;28;20077;-71
2022/04/03 11:58:30;;;;;;;2.03;1.80;;;;;;;;;;5034635;28;20445;-70
2022/04/03 12:00:57;;;;;;;2.00;1.90;;;;;;;;;;5050910;28;20145;-71
2022/04/03 12:03:27;;;;;;;2.40;2.05;;;;;;;;;;5048482;28;20102;-70
2022/04/03 12:06:29;;;;;;;1.98;1.88;;;;;;;;;;5035226;28;20051;-69
2022/04/03 12:08:56;;;;;;;7.78;4.63;;;;;;;;;;5048127;28;20080;-69
2022/04/03 12:11:25;;;;;;;1.70;1.60;;;;;;;;;;5048942;28;20099;-69
2022/04/03 12:13:53;;;;;;;2.67;1.73;;;;;;;;;;5045398;28;20041;-69
2022/04/03 12:16:21;;;;;;;1.48;1.38;;;;;;;;;;5044368;28;20084;-69
2022/04/03 12:18:48;;;;;;;2.13;1.70;;;;;;;;;;5031657;28;20098;-68
2022/04/03 12:21:14;;;;;;;2.17;2.08;;;;;;;;;;5030074;28;20133;-72
2022/04/03 12:23:59;;;;;;;2.50;2.28;;;;;;;;;;5030425;28;20085;-67
2022/04/03 12:26:26;;;;;;;2.05;1.95;;;;;;;;;;5029822;28;20406;-68
2022/04/03 12:28:54;;;;;;;2.13;1.92;;;;;;;;;;5045481;28;20080;-69
2022/04/03 12:31:25;;;;;;;3.33;3.03;;;;;;;;;;5050129;28;20072;-70
2022/04/03 12:34:02;;;;;;;8.55;5.05;;;;;;;;;;5046510;28;20052;-69
2022/04/03 12:36:38;;;;;;;3.38;2.70;;;;;;;;;;5029798;28;20059;-69
2022/04/03 12:39:23;;;;;;;2.75;2.33;;;;;;;;;;5036665;28;20509;-70
2022/04/03 12:41:49;;;;;;;1.90;1.80;;;;;;;;;;5026270;28;20143;-70
2022/04/03 12:44:18;;;;;;;2.33;2.13;;;;;;;;;;5029832;28;20053;-69
2022/04/03 12:46:47;;;;;;;2.88;2.58;;;;;;;;;;5029894;28;20144;-70
2022/04/03 12:49:20;;;;;;;3.65;2.45;;;;;;;;;;5028974;28;20077;-70
2022/04/03 12:51:46;;;;;;;2.25;2.03;;;;;;;;;;5028631;28;20539;-69
2022/04/03 12:54:13;;;;;;;2.50;2.03;;;;;;;;;;5029281;28;20073;-69
2022/04/03 12:59:37;;;;;;;2.67;1.83;;;;;;;;;;5045269;28;20112;-68
2022/04/03 13:02:07;;;;;;;2.13;1.98;;;;;;;;;;5033444;28;20045;-71
2022/04/03 13:04:34;;;;;;;3.05;2.00;;;;;;;;;;5049931;28;20504;-69
2022/04/03 13:07:03;;;;;;;4.05;2.38;;;;;;;;;;5043787;28;20076;-69
2022/04/03 13:09:30;;;;;;;2.38;1.92;;;;;;;;;;5041550;28;20045;-69
2022/04/03 13:11:57;;;;;;;3.10;2.20;;;;;;;;;;5031892;28;20080;-69
2022/04/03 13:14:36;;;;;;;2.70;2.00;;;;;;;;;;5021771;28;20349;-68
2022/04/03 13:17:04;;;;;;;4.20;3.05;;;;;;;;;;5032485;28;20534;-69
2022/04/03 13:19:38;;;;;;;2.55;2.35;;;;;;;;;;5022511;28;20485;-69
2022/04/03 13:22:05;;;;;;;2.90;2.03;;;;;;;;;;5034703;28;20085;-69
2022/04/03 13:24:32;;;;;;;1.97;1.80;;;;;;;;;;5033367;28;20085;-70
2022/04/03 13:26:59;;;;;;;1.80;1.70;;;;;;;;;;5033344;28;20573;-71
2022/04/03 13:29:26;;;;;;;2.00;1.90;;;;;;;;;;5034640;28;20041;-69
2022/04/03 13:31:53;;;;;;;2.75;2.08;;;;;;;;;;5031010;28;20045;-69
2022/04/03 13:34:20;;;;;;;2.13;1.92;;;;;;;;;;5029523;28;20100;-70
2022/04/03 13:36:49;;;;;;;2.25;1.83;;;;;;;;;;5033832;28;20105;-70
2022/04/03 13:39:16;;;;;;;1.83;1.73;;;;;;;;;;5047411;28;20494;-69
2022/04/03 13:41:45;;;;;;;2.15;1.80;;;;;;;;;;5054458;28;20128;-70
2022/04/03 13:44:14;;;;;;;2.88;2.42;;;;;;;;;;5040633;28;20052;-69
2022/04/03 13:46:41;;;;;;;4.78;2.40;;;;;;;;;;5054545;28;20060;-68
2022/04/03 13:49:08;;;;;;;4.15;2.00;;;;;;;;;;5053882;28;20080;-68
2022/04/03 13:51:38;;;;;;;3.42;3.10;;;;;;;;;;5043550;28;20081;-69
2022/04/03 13:54:06;;;;;;;1.98;1.88;;;;;;;;;;5033650;28;20073;-70
2022/04/03 13:56:32;;;;;;;1.75;1.50;;;;;;;;;;5033900;28;20108;-70
2022/04/03 13:59:00;;;;;;;2.92;2.40;;;;;;;;;;5034101;28;20115;-70
2022/04/03 14:01:29;;;;;;;3.30;2.30;;;;;;;;;;5032490;28;20081;-70
2022/04/03 14:03:56;;;;;;;1.10;1.10;;;;;;;;;;5032721;28;20077;-70
2022/04/03 14:06:23;;;;;;;1.65;1.25;;;;;;;;;;5033673;28;20046;-70
2022/04/03 14:08:49;;;;;;;1.17;1.00;;;;;;;;;;5033317;28;20088;-70
2022/04/03 14:11:17;;;;;;;1.33;1.17;;;;;;;;;;5033490;28;20405;-71
2022/04/03 14:13:43;;;;;;;4.10;1.35;;;;;;;;;;5034053;28;20077;-70
2022/04/03 14:16:10;;;;;;;1.57;1.47;;;;;;;;;;5051118;28;20453;-70
2022/04/03 14:18:36;;;;;;;1.80;1.00;;;;;;;;;;5054045;28;20124;-71
2022/04/03 14:21:03;;;;;;;1.30;1.07;;;;;;;;;;5054023;28;20099;-71
2022/04/03 14:23:33;;;;;;;5.57;3.20;;;;;;;;;;5052532;28;20049;-72
2022/04/03 14:26:01;;;;;;;5.90;3.65;;;;;;;;;;5053504;28;20049;-70
2022/04/03 14:28:28;;;;;;;2.00;1.77;;;;;;;;;;5053316;28;20141;-73
2022/04/03 14:30:55;;;;;;;1.25;1.05;;;;;;;;;;5032628;28;20413;-71
2022/04/03 14:33:21;;;;;;;1.13;0.98;;;;;;;;;;5045501;28;20044;-69
2022/04/03 14:35:48;;;;;;;1.30;1.17;;;;;;;;;;5053445;28;20053;-70
2022/04/03 14:38:14;;;;;;;2.80;1.40;;;;;;;;;;5041586;28;20579;-70